sensor_id;sensor_type;location;lat;lon;timestamp;pressure;altitude;pressure_sealevel;temperature;humidity
81812;BME280;71243;51.848;5.768;2023-09-18T00:01:42;100716.94;;;20.01;86.75
81812;BME280;71243;51.848;5.768;2023-09-18T00:04:07;100712.59;;;20.00;87.18
81812;BME280;71243;51.848;5.768;2023-09-18T00:06:35;100703.13;;;19.97;87.40
81812;BME280;71243;51.848;5.768;2023-09-18T00:09:01;100705.19;;;19.95;87.14
81812;BME280;71243;51.848;5.768;2023-09-18T00:11:26;100692.59;;;19.96;87.28
81812;BME280;71243;51.848;5.768;2023-09-18T00:13:52;100685.38;;;19.96;87.17
81812;BME280;71243;51.848;5.768;2023-09-18T00:16:17;100681.66;;;19.97;86.83
81812;BME280;71243;51.848;5.768;2023-09-18T00:18:42;100677.75;;;19.93;87.10
81812;BME280;71243;51.848;5.768;2023-09-18T00:21:08;100673.00;;;19.95;87.16
81812;BME280;71243;51.848;5.768;2023-09-18T00:23:33;100668.06;;;19.92;86.97
81812;BME280;71243;51.848;5.768;2023-09-18T00:25:58;100653.63;;;19.93;86.92
81812;BME280;71243;51.848;5.768;2023-09-18T00:28:24;100650.72;;;19.95;87.25
81812;BME280;71243;51.848;5.768;2023-09-18T00:30:49;100656.06;;;19.95;86.93
81812;BME280;71243;51.848;5.768;2023-09-18T00:33:18;100654.44;;;19.94;87.07
81812;BME280;71243;51.848;5.768;2023-09-18T00:35:50;100657.94;;;19.94;86.80
81812;BME280;71243;51.848;5.768;2023-09-18T00:38:16;100660.25;;;19.84;87.18
81812;BME280;71243;51.848;5.768;2023-09-18T00:40:42;100635.94;;;19.79;87.63
81812;BME280;71243;51.848;5.768;2023-09-18T00:43:08;100640.47;;;19.85;87.36
81812;BME280;71243;51.848;5.768;2023-09-18T00:45:34;100634.88;;;19.87;87.38
81812;BME280;71243;51.848;5.768;2023-09-18T00:48:01;100620.06;;;19.78;87.58
81812;BME280;71243;51.848;5.768;2023-09-18T00:50:26;100622.97;;;19.76;87.98
81812;BME280;71243;51.848;5.768;2023-09-18T00:52:51;100613.88;;;19.77;87.80
81812;BME280;71243;51.848;5.768;2023-09-18T00:55:17;100613.88;;;19.77;87.65
81812;BME280;71243;51.848;5.768;2023-09-18T00:57:43;100611.59;;;19.81;87.13
81812;BME280;71243;51.848;5.768;2023-09-18T01:00:10;100605.44;;;19.74;87.64
81812;BME280;71243;51.848;5.768;2023-09-18T01:02:35;100599.84;;;19.75;87.58
81812;BME280;71243;51.848;5.768;2023-09-18T01:05:01;100594.28;;;19.77;87.71
81812;BME280;71243;51.848;5.768;2023-09-18T01:07:26;100588.91;;;19.77;87.40
81812;BME280;71243;51.848;5.768;2023-09-18T01:09:52;100580.69;;;19.78;87.51
81812;BME280;71243;51.848;5.768;2023-09-18T01:12:30;100579.63;;;19.79;87.37
81812;BME280;71243;51.848;5.768;2023-09-18T01:15:12;100576.34;;;19.77;87.66
81812;BME280;71243;51.848;5.768;2023-09-18T01:17:43;100572.63;;;19.78;87.24
81812;BME280;71243;51.848;5.768;2023-09-18T01:20:10;100560.84;;;19.79;87.16
81812;BME280;71243;51.848;5.768;2023-09-18T01:22:35;100550.13;;;19.79;87.29
81812;BME280;71243;51.848;5.768;2023-09-18T01:25:00;100545.22;;;19.76;87.64
81812;BME280;71243;51.848;5.768;2023-09-18T01:27:26;100546.00;;;19.77;87.65
81812;BME280;71243;51.848;5.768;2023-09-18T01:29:51;100539.19;;;19.81;87.19
81812;BME280;71243;51.848;5.768;2023-09-18T01:32:16;100535.47;;;19.82;87.27
81812;BME280;71243;51.848;5.768;2023-09-18T01:34:53;100524.16;;;19.80;87.44
81812;BME280;71243;51.848;5.768;2023-09-18T01:37:28;100513.66;;;19.78;87.72
81812;BME280;71243;51.848;5.768;2023-09-18T01:39:54;100512.97;;;19.83;87.35
81812;BME280;71243;51.848;5.768;2023-09-18T01:42:20;100513.81;;;19.83;87.02
81812;BME280;71243;51.848;5.768;2023-09-18T01:44:47;100512.59;;;19.79;87.52
81812;BME280;71243;51.848;5.768;2023-09-18T01:47:14;100515.66;;;19.83;87.41
81812;BME280;71243;51.848;5.768;2023-09-18T01:49:40;100511.75;;;19.85;87.09
81812;BME280;71243;51.848;5.768;2023-09-18T01:52:08;100514.19;;;19.87;87.09
81812;BME280;71243;51.848;5.768;2023-09-18T01:54:34;100508.00;;;19.86;87.15
81812;BME280;71243;51.848;5.768;2023-09-18T01:57:00;100512.53;;;19.86;87.12
81812;BME280;71243;51.848;5.768;2023-09-18T01:59:26;100510.47;;;19.88;87.03
81812;BME280;71243;51.848;5.768;2023-09-18T02:01:52;100514.16;;;19.93;86.97
81812;BME280;71243;51.848;5.768;2023-09-18T02:04:18;100513.88;;;20.01;86.60
81812;BME280;71243;51.848;5.768;2023-09-18T02:06:44;100510.72;;;20.11;86.08
81812;BME280;71243;51.848;5.768;2023-09-18T02:09:09;100513.13;;;20.25;85.30
81812;BME280;71243;51.848;5.768;2023-09-18T02:11:39;100502.63;;;20.42;83.91
81812;BME280;71243;51.848;5.768;2023-09-18T02:14:05;100506.47;;;20.52;83.72
81812;BME280;71243;51.848;5.768;2023-09-18T02:16:35;100506.84;;;20.56;83.59
81812;BME280;71243;51.848;5.768;2023-09-18T02:19:00;100507.22;;;20.59;83.21
81812;BME280;71243;51.848;5.768;2023-09-18T02:21:26;100506.72;;;20.69;82.72
81812;BME280;71243;51.848;5.768;2023-09-18T02:23:52;100505.66;;;20.70;82.83
81812;BME280;71243;51.848;5.768;2023-09-18T02:26:22;100507.31;;;20.71;82.52
81812;BME280;71243;51.848;5.768;2023-09-18T02:28:48;100497.41;;;20.71;82.51
81812;BME280;71243;51.848;5.768;2023-09-18T02:31:14;100491.66;;;20.68;82.93
81812;BME280;71243;51.848;5.768;2023-09-18T02:33:40;100487.31;;;20.67;82.73
81812;BME280;71243;51.848;5.768;2023-09-18T02:36:05;100477.41;;;20.67;82.87
81812;BME280;71243;51.848;5.768;2023-09-18T02:38:32;100467.78;;;20.60;83.03
81812;BME280;71243;51.848;5.768;2023-09-18T02:40:57;100457.88;;;20.60;82.83
81812;BME280;71243;51.848;5.768;2023-09-18T02:43:23;100449.59;;;20.62;82.85
81812;BME280;71243;51.848;5.768;2023-09-18T02:45:52;100451.88;;;20.58;83.15
81812;BME280;71243;51.848;5.768;2023-09-18T02:48:18;100449.22;;;20.58;83.32
81812;BME280;71243;51.848;5.768;2023-09-18T02:50:43;100436.25;;;20.55;83.44
81812;BME280;71243;51.848;5.768;2023-09-18T02:53:20;100426.16;;;20.51;83.57
81812;BME280;71243;51.848;5.768;2023-09-18T02:55:47;100428.22;;;20.49;83.68
81812;BME280;71243;51.848;5.768;2023-09-18T02:58:12;100408.84;;;20.47;83.63
81812;BME280;71243;51.848;5.768;2023-09-18T03:00:42;100403.47;;;20.47;83.74
81812;BME280;71243;51.848;5.768;2023-09-18T03:03:07;100382.38;;;20.50;83.50
81812;BME280;71243;51.848;5.768;2023-09-18T03:05:32;100386.78;;;20.45;83.95
81812;BME280;71243;51.848;5.768;2023-09-18T03:07:58;100379.31;;;20.47;83.86
81812;BME280;71243;51.848;5.768;2023-09-18T03:10:23;100370.25;;;20.48;83.81
81812;BME280;71243;51.848;5.768;2023-09-18T03:12:48;100376.44;;;20.48;83.92
81812;BME280;71243;51.848;5.768;2023-09-18T03:15:13;100373.81;;;20.42;84.49
81812;BME280;71243;51.848;5.768;2023-09-18T03:17:39;100364.78;;;20.36;84.97
81812;BME280;71243;51.848;5.768;2023-09-18T03:20:05;100369.56;;;20.34;84.69
81812;BME280;71243;51.848;5.768;2023-09-18T03:22:30;100371.44;;;20.34;84.85
81812;BME280;71243;51.848;5.768;2023-09-18T03:24:55;100362.41;;;20.28;85.55
81812;BME280;71243;51.848;5.768;2023-09-18T03:27:21;100367.31;;;20.31;85.49
81812;BME280;71243;51.848;5.768;2023-09-18T03:29:46;100363.66;;;20.26;85.56
81812;BME280;71243;51.848;5.768;2023-09-18T03:32:11;100365.09;;;20.28;85.39
81812;BME280;71243;51.848;5.768;2023-09-18T03:34:36;100362.41;;;20.28;85.62
81812;BME280;71243;51.848;5.768;2023-09-18T03:37:02;100366.06;;;20.34;85.01
81812;BME280;71243;51.848;5.768;2023-09-18T03:39:27;100365.84;;;20.35;85.17
81812;BME280;71243;51.848;5.768;2023-09-18T03:41:52;100369.41;;;20.29;85.36
81812;BME280;71243;51.848;5.768;2023-09-18T03:44:17;100382.88;;;20.23;86.02
81812;BME280;71243;51.848;5.768;2023-09-18T03:46:43;100395.84;;;20.26;85.57
81812;BME280;71243;51.848;5.768;2023-09-18T03:49:08;100385.13;;;20.26;85.57
81812;BME280;71243;51.848;5.768;2023-09-18T03:51:33;100386.84;;;20.20;86.11
81812;BME280;71243;51.848;5.768;2023-09-18T03:53:59;100384.97;;;20.21;86.12
81812;BME280;71243;51.848;5.768;2023-09-18T03:56:24;100380.81;;;20.25;85.96
81812;BME280;71243;51.848;5.768;2023-09-18T03:58:49;100382.66;;;20.24;85.91
81812;BME280;71243;51.848;5.768;2023-09-18T04:01:18;100362.91;;;20.19;86.40
81812;BME280;71243;51.848;5.768;2023-09-18T04:03:43;100357.53;;;20.19;86.16
81812;BME280;71243;51.848;5.768;2023-09-18T04:06:08;100366.63;;;20.18;86.18
81812;BME280;71243;51.848;5.768;2023-09-18T04:08:34;100382.09;;;20.16;86.43
81812;BME280;71243;51.848;5.768;2023-09-18T04:11:02;100385.47;;;20.11;86.29
81812;BME280;71243;51.848;5.768;2023-09-18T04:13:27;100376.06;;;20.02;86.52
81812;BME280;71243;51.848;5.768;2023-09-18T04:15:52;100372.28;;;20.10;86.53
81812;BME280;71243;51.848;5.768;2023-09-18T04:18:18;100363.78;;;20.13;85.97
81812;BME280;71243;51.848;5.768;2023-09-18T04:20:46;100359.25;;;20.13;86.06
81812;BME280;71243;51.848;5.768;2023-09-18T04:23:25;100359.44;;;20.12;85.78
81812;BME280;71243;51.848;5.768;2023-09-18T04:25:53;100345.59;;;20.15;85.43
81812;BME280;71243;51.848;5.768;2023-09-18T04:28:20;100334.91;;;20.08;85.91
81812;BME280;71243;51.848;5.768;2023-09-18T04:30:46;100324.25;;;20.02;85.71
81812;BME280;71243;51.848;5.768;2023-09-18T04:33:13;100335.75;;;20.09;85.56
81812;BME280;71243;51.848;5.768;2023-09-18T04:35:38;100353.13;;;20.06;85.54
81812;BME280;71243;51.848;5.768;2023-09-18T04:38:04;100351.25;;;20.07;85.00
81812;BME280;71243;51.848;5.768;2023-09-18T04:40:29;100350.63;;;20.05;85.46
81812;BME280;71243;51.848;5.768;2023-09-18T04:42:54;100344.03;;;20.07;85.48
81812;BME280;71243;51.848;5.768;2023-09-18T04:45:20;100343.78;;;20.09;85.23
81812;BME280;71243;51.848;5.768;2023-09-18T04:47:45;100353.28;;;20.11;85.32
81812;BME280;71243;51.848;5.768;2023-09-18T04:50:10;100357.22;;;20.09;85.09
81812;BME280;71243;51.848;5.768;2023-09-18T04:52:36;100342.97;;;20.08;85.53
81812;BME280;71243;51.848;5.768;2023-09-18T04:55:01;100341.50;;;20.12;85.60
81812;BME280;71243;51.848;5.768;2023-09-18T04:57:26;100340.66;;;20.12;85.73
81812;BME280;71243;51.848;5.768;2023-09-18T04:59:52;100334.88;;;20.15;85.94
81812;BME280;71243;51.848;5.768;2023-09-18T05:02:17;100309.66;;;20.16;85.86
81812;BME280;71243;51.848;5.768;2023-09-18T05:04:42;100296.44;;;20.21;85.61
81812;BME280;71243;51.848;5.768;2023-09-18T05:07:08;100311.34;;;20.17;86.17
81812;BME280;71243;51.848;5.768;2023-09-18T05:09:33;100310.91;;;20.20;86.41
81812;BME280;71243;51.848;5.768;2023-09-18T05:11:58;100298.75;;;20.17;86.64
81812;BME280;71243;51.848;5.768;2023-09-18T05:14:23;100303.31;;;20.10;86.83
81812;BME280;71243;51.848;5.768;2023-09-18T05:16:48;100314.03;;;20.17;86.75
81812;BME280;71243;51.848;5.768;2023-09-18T05:19:14;100318.50;;;20.23;86.37
81812;BME280;71243;51.848;5.768;2023-09-18T05:21:39;100314.03;;;20.17;86.75
81812;BME280;71243;51.848;5.768;2023-09-18T05:24:04;100307.16;;;20.21;86.71
81812;BME280;71243;51.848;5.768;2023-09-18T05:26:30;100300.91;;;20.27;86.07
81812;BME280;71243;51.848;5.768;2023-09-18T05:28:55;100293.31;;;20.24;86.67
81812;BME280;71243;51.848;5.768;2023-09-18T05:31:20;100300.09;;;20.26;86.33
81812;BME280;71243;51.848;5.768;2023-09-18T05:33:46;100307.53;;;20.24;86.62
81812;BME280;71243;51.848;5.768;2023-09-18T05:36:12;100306.28;;;20.27;86.65
81812;BME280;71243;51.848;5.768;2023-09-18T05:38:38;100309.25;;;20.19;86.64
81812;BME280;71243;51.848;5.768;2023-09-18T05:41:03;100309.06;;;20.20;86.77
81812;BME280;71243;51.848;5.768;2023-09-18T05:43:28;100320.22;;;20.17;86.92
81812;BME280;71243;51.848;5.768;2023-09-18T05:45:53;100330.72;;;20.19;86.94
81812;BME280;71243;51.848;5.768;2023-09-18T05:48:19;100332.97;;;20.22;86.94
81812;BME280;71243;51.848;5.768;2023-09-18T05:50:44;100332.22;;;20.08;87.46
81812;BME280;71243;51.848;5.768;2023-09-18T05:53:09;100339.03;;;20.11;87.59
81812;BME280;71243;51.848;5.768;2023-09-18T05:55:34;100339.41;;;20.14;87.20
81812;BME280;71243;51.848;5.768;2023-09-18T05:58:00;100361.75;;;20.08;87.41
81812;BME280;71243;51.848;5.768;2023-09-18T06:00:26;100365.03;;;20.10;87.45
81812;BME280;71243;51.848;5.768;2023-09-18T06:02:51;100349.38;;;20.07;87.94
81812;BME280;71243;51.848;5.768;2023-09-18T06:05:17;100360.50;;;20.11;87.77
81812;BME280;71243;51.848;5.768;2023-09-18T06:07:42;100370.63;;;20.09;87.72
81812;BME280;71243;51.848;5.768;2023-09-18T06:10:08;100363.41;;;20.09;87.75
81812;BME280;71243;51.848;5.768;2023-09-18T06:12:34;100361.16;;;20.06;87.85
81812;BME280;71243;51.848;5.768;2023-09-18T06:14:59;100367.34;;;20.07;87.67
81812;BME280;71243;51.848;5.768;2023-09-18T06:17:24;100371.44;;;20.09;87.52
81812;BME280;71243;51.848;5.768;2023-09-18T06:19:49;100369.78;;;20.08;87.73
81812;BME280;71243;51.848;5.768;2023-09-18T06:22:15;100367.63;;;19.99;88.23
81812;BME280;71243;51.848;5.768;2023-09-18T06:24:40;100380.22;;;19.98;88.57
81812;BME280;71243;51.848;5.768;2023-09-18T06:27:06;100393.63;;;19.98;88.24
81812;BME280;71243;51.848;5.768;2023-09-18T06:29:34;100388.41;;;20.03;87.83
81812;BME280;71243;51.848;5.768;2023-09-18T06:32:00;100406.16;;;20.04;87.16
81812;BME280;71243;51.848;5.768;2023-09-18T06:34:25;100400.81;;;20.04;87.21
81812;BME280;71243;51.848;5.768;2023-09-18T06:36:51;100392.69;;;20.11;86.72
81812;BME280;71243;51.848;5.768;2023-09-18T06:39:16;100403.88;;;20.08;86.52
81812;BME280;71243;51.848;5.768;2023-09-18T06:41:41;100397.91;;;20.06;85.77
81812;BME280;71243;51.848;5.768;2023-09-18T06:44:07;100399.28;;;20.08;85.28
81812;BME280;71243;51.848;5.768;2023-09-18T06:46:32;100396.03;;;20.06;85.34
81812;BME280;71243;51.848;5.768;2023-09-18T06:48:57;100394.53;;;20.10;85.00
81812;BME280;71243;51.848;5.768;2023-09-18T06:51:23;100400.72;;;20.11;84.69
81812;BME280;71243;51.848;5.768;2023-09-18T06:53:48;100396.19;;;20.11;84.17
81812;BME280;71243;51.848;5.768;2023-09-18T06:56:13;100400.06;;;20.15;84.25
81812;BME280;71243;51.848;5.768;2023-09-18T06:58:39;100405.88;;;20.12;83.76
81812;BME280;71243;51.848;5.768;2023-09-18T07:01:04;100419.06;;;20.14;83.48
81812;BME280;71243;51.848;5.768;2023-09-18T07:03:29;100416.59;;;20.12;83.43
81812;BME280;71243;51.848;5.768;2023-09-18T07:05:54;100432.09;;;20.10;83.30
81812;BME280;71243;51.848;5.768;2023-09-18T07:08:20;100417.66;;;20.11;82.70
81812;BME280;71243;51.848;5.768;2023-09-18T07:10:45;100417.88;;;20.10;82.98
81812;BME280;71243;51.848;5.768;2023-09-18T07:13:10;100402.81;;;20.09;82.79
81812;BME280;71243;51.848;5.768;2023-09-18T07:15:36;100415.38;;;20.08;83.21
81812;BME280;71243;51.848;5.768;2023-09-18T07:18:01;100404.47;;;20.10;82.69
81812;BME280;71243;51.848;5.768;2023-09-18T07:20:26;100393.88;;;20.15;82.40
81812;BME280;71243;51.848;5.768;2023-09-18T07:22:51;100384.19;;;20.14;82.72
81812;BME280;71243;51.848;5.768;2023-09-18T07:25:17;100382.34;;;20.14;82.53
81812;BME280;71243;51.848;5.768;2023-09-18T07:27:42;100393.75;;;20.10;82.98
81812;BME280;71243;51.848;5.768;2023-09-18T07:30:08;100394.75;;;20.09;82.73
81812;BME280;71243;51.848;5.768;2023-09-18T07:32:33;100414.75;;;20.13;81.71
81812;BME280;71243;51.848;5.768;2023-09-18T07:34:58;100391.06;;;20.10;82.31
81812;BME280;71243;51.848;5.768;2023-09-18T07:37:23;100394.75;;;20.09;82.45
81812;BME280;71243;51.848;5.768;2023-09-18T07:39:49;100414.38;;;20.09;82.20
81812;BME280;71243;51.848;5.768;2023-09-18T07:42:14;100413.75;;;20.07;81.91
81812;BME280;71243;51.848;5.768;2023-09-18T07:44:39;100415.38;;;20.08;82.36
81812;BME280;71243;51.848;5.768;2023-09-18T07:47:04;100407.78;;;20.05;82.44
81812;BME280;71243;51.848;5.768;2023-09-18T07:49:30;100421.22;;;20.05;82.05
81812;BME280;71243;51.848;5.768;2023-09-18T07:51:55;100433.59;;;20.06;82.29
81812;BME280;71243;51.848;5.768;2023-09-18T07:54:20;100422.41;;;20.09;82.11
81812;BME280;71243;51.848;5.768;2023-09-18T07:56:46;100417.06;;;20.09;82.12
81812;BME280;71243;51.848;5.768;2023-09-18T07:59:11;100411.31;;;20.06;81.65
81812;BME280;71243;51.848;5.768;2023-09-18T08:01:36;100418.91;;;20.09;81.82
81812;BME280;71243;51.848;5.768;2023-09-18T08:04:02;100425.75;;;20.05;81.80
81812;BME280;71243;51.848;5.768;2023-09-18T08:06:27;100431.50;;;20.08;81.66
81812;BME280;71243;51.848;5.768;2023-09-18T08:08:53;100427.19;;;20.07;81.25
81812;BME280;71243;51.848;5.768;2023-09-18T08:11:18;100432.09;;;20.10;80.60
81812;BME280;71243;51.848;5.768;2023-09-18T08:13:43;100424.03;;;20.10;81.24
81812;BME280;71243;51.848;5.768;2023-09-18T08:16:08;100430.25;;;20.11;81.00
81812;BME280;71243;51.848;5.768;2023-09-18T08:18:34;100426.50;;;20.12;80.69
81812;BME280;71243;51.848;5.768;2023-09-18T08:20:59;100416.16;;;20.15;80.51
81812;BME280;71243;51.848;5.768;2023-09-18T08:23:24;100418.66;;;20.17;80.89
81812;BME280;71243;51.848;5.768;2023-09-18T08:25:50;100412.28;;;20.11;81.19
81812;BME280;71243;51.848;5.768;2023-09-18T08:28:15;100413.69;;;20.14;80.19
81812;BME280;71243;51.848;5.768;2023-09-18T08:30:40;100419.25;;;20.19;80.27
81812;BME280;71243;51.848;5.768;2023-09-18T08:33:05;100419.84;;;20.21;80.03
81812;BME280;71243;51.848;5.768;2023-09-18T08:35:31;100420.59;;;20.28;79.81
81812;BME280;71243;51.848;5.768;2023-09-18T08:37:59;100430.16;;;20.24;79.88
81812;BME280;71243;51.848;5.768;2023-09-18T08:40:25;100443.66;;;20.35;80.01
81812;BME280;71243;51.848;5.768;2023-09-18T08:42:52;100447.25;;;20.47;79.84
81812;BME280;71243;51.848;5.768;2023-09-18T08:45:29;100453.81;;;20.51;79.57
81812;BME280;71243;51.848;5.768;2023-09-18T08:47:56;100458.97;;;20.53;79.41
81812;BME280;71243;51.848;5.768;2023-09-18T08:50:22;100460.41;;;20.55;79.07
81812;BME280;71243;51.848;5.768;2023-09-18T08:52:48;100459.34;;;20.56;79.06
81812;BME280;71243;51.848;5.768;2023-09-18T08:55:14;100460.41;;;20.55;78.84
81812;BME280;71243;51.848;5.768;2023-09-18T08:57:41;100450.09;;;20.52;78.54
81812;BME280;71243;51.848;5.768;2023-09-18T09:00:07;100456.28;;;20.53;78.63
81812;BME280;71243;51.848;5.768;2023-09-18T09:02:33;100456.63;;;20.38;79.03
81812;BME280;71243;51.848;5.768;2023-09-18T09:04:59;100452.91;;;20.39;78.98
81812;BME280;71243;51.848;5.768;2023-09-18T09:07:25;100450.63;;;20.43;79.20
81812;BME280;71243;51.848;5.768;2023-09-18T09:09:50;100457.53;;;20.50;78.76
81812;BME280;71243;51.848;5.768;2023-09-18T09:12:46;100462.75;;;20.45;77.73
81812;BME280;71243;51.848;5.768;2023-09-18T09:15:03;100460.56;;;20.60;77.56
81812;BME280;71243;51.848;5.768;2023-09-18T09:17:29;100452.13;;;20.57;77.77
81812;BME280;71243;51.848;5.768;2023-09-18T09:20:08;100455.94;;;20.67;77.32
81812;BME280;71243;51.848;5.768;2023-09-18T09:22:34;100454.22;;;20.73;77.68
81812;BME280;71243;51.848;5.768;2023-09-18T09:24:59;100463.69;;;20.75;77.82
81812;BME280;71243;51.848;5.768;2023-09-18T09:27:24;100463.69;;;20.94;77.94
81812;BME280;71243;51.848;5.768;2023-09-18T09:29:59;100460.28;;;21.05;77.06
81812;BME280;71243;51.848;5.768;2023-09-18T09:32:29;100444.69;;;21.25;76.02
81812;BME280;71243;51.848;5.768;2023-09-18T09:34:57;100446.88;;;21.46;75.95
81812;BME280;71243;51.848;5.768;2023-09-18T09:37:29;100440.16;;;21.55;74.32
81812;BME280;71243;51.848;5.768;2023-09-18T09:39:54;100448.34;;;21.60;73.62
81812;BME280;71243;51.848;5.768;2023-09-18T09:42:20;100448.03;;;21.68;73.15
81812;BME280;71243;51.848;5.768;2023-09-18T09:44:46;100446.44;;;21.78;72.69
81812;BME280;71243;51.848;5.768;2023-09-18T09:47:11;100462.59;;;21.90;72.62
81812;BME280;71243;51.848;5.768;2023-09-18T09:49:47;100470.59;;;21.97;70.90
81812;BME280;71243;51.848;5.768;2023-09-18T09:52:18;100471.53;;;22.14;72.37
81812;BME280;71243;51.848;5.768;2023-09-18T09:54:44;100480.56;;;22.31;70.73
81812;BME280;71243;51.848;5.768;2023-09-18T09:57:09;100482.56;;;22.35;70.08
81812;BME280;71243;51.848;5.768;2023-09-18T09:59:34;100470.59;;;22.43;68.79
81812;BME280;71243;51.848;5.768;2023-09-18T10:01:59;100482.44;;;22.53;69.33
81812;BME280;71243;51.848;5.768;2023-09-18T10:04:26;100470.16;;;22.57;69.12
81812;BME280;71243;51.848;5.768;2023-09-18T10:06:58;100480.34;;;22.55;68.27
81812;BME280;71243;51.848;5.768;2023-09-18T10:09:26;100492.50;;;22.46;68.79
81812;BME280;71243;51.848;5.768;2023-09-18T10:11:53;100499.03;;;22.27;68.96
81812;BME280;71243;51.848;5.768;2023-09-18T10:14:21;100482.41;;;22.30;69.29
81812;BME280;71243;51.848;5.768;2023-09-18T10:16:53;100487.81;;;22.30;69.36
81812;BME280;71243;51.848;5.768;2023-09-18T10:19:37;100503.50;;;22.33;69.08
81812;BME280;71243;51.848;5.768;2023-09-18T10:24:58;100504.19;;;22.29;68.61
81812;BME280;71243;51.848;5.768;2023-09-18T10:27:24;100520.00;;;22.25;68.57
81812;BME280;71243;51.848;5.768;2023-09-18T10:29:51;100513.88;;;22.18;68.57
81812;BME280;71243;51.848;5.768;2023-09-18T10:32:17;100516.00;;;22.16;68.72
81812;BME280;71243;51.848;5.768;2023-09-18T10:34:44;100517.31;;;22.25;67.85
81812;BME280;71243;51.848;5.768;2023-09-18T10:37:11;100518.84;;;22.33;69.03
81812;BME280;71243;51.848;5.768;2023-09-18T10:39:38;100509.06;;;22.61;68.89
81812;BME280;71243;51.848;5.768;2023-09-18T10:42:03;100515.13;;;22.68;66.12
81812;BME280;71243;51.848;5.768;2023-09-18T10:44:29;100514.78;;;22.65;66.19
81812;BME280;71243;51.848;5.768;2023-09-18T10:46:55;100514.50;;;22.43;66.49
81812;BME280;71243;51.848;5.768;2023-09-18T10:49:21;100512.06;;;22.42;67.66
81812;BME280;71243;51.848;5.768;2023-09-18T10:51:47;100515.00;;;22.40;67.30
81812;BME280;71243;51.848;5.768;2023-09-18T10:54:20;100523.97;;;22.34;67.37
81812;BME280;71243;51.848;5.768;2023-09-18T10:56:45;100525.16;;;22.38;67.96
81812;BME280;71243;51.848;5.768;2023-09-18T10:59:14;100513.13;;;22.52;66.70
81812;BME280;71243;51.848;5.768;2023-09-18T11:01:39;100501.53;;;22.75;67.22
81812;BME280;71243;51.848;5.768;2023-09-18T11:04:07;100495.19;;;22.93;66.50
81812;BME280;71243;51.848;5.768;2023-09-18T11:09:24;100490.59;;;23.05;64.68
81812;BME280;71243;51.848;5.768;2023-09-18T11:11:53;100481.34;;;23.01;64.63
81812;BME280;71243;51.848;5.768;2023-09-18T11:14:18;100488.81;;;23.10;63.75
81812;BME280;71243;51.848;5.768;2023-09-18T11:16:43;100491.56;;;22.99;63.91
81812;BME280;71243;51.848;5.768;2023-09-18T11:19:11;100488.63;;;22.88;64.94
81812;BME280;71243;51.848;5.768;2023-09-18T11:21:36;100493.03;;;23.06;64.66
81812;BME280;71243;51.848;5.768;2023-09-18T11:24:07;100478.19;;;22.92;65.28
81812;BME280;71243;51.848;5.768;2023-09-18T11:26:34;100480.88;;;22.92;65.33
81812;BME280;71243;51.848;5.768;2023-09-18T11:29:08;100490.16;;;22.96;65.60
81812;BME280;71243;51.848;5.768;2023-09-18T11:34:31;100507.06;;;22.68;66.74
81812;BME280;71243;51.848;5.768;2023-09-18T11:36:57;100501.53;;;22.75;67.99
81812;BME280;71243;51.848;5.768;2023-09-18T11:42:17;100511.03;;;22.54;65.50
81812;BME280;71243;51.848;5.768;2023-09-18T11:44:43;100516.84;;;22.51;66.38
81812;BME280;71243;51.848;5.768;2023-09-18T11:47:10;100509.16;;;22.55;66.63
81812;BME280;71243;51.848;5.768;2023-09-18T11:49:37;100509.25;;;22.48;65.97
81812;BME280;71243;51.848;5.768;2023-09-18T11:52:03;100509.66;;;22.63;66.91
81812;BME280;71243;51.848;5.768;2023-09-18T11:54:28;100515.59;;;22.77;65.86
81812;BME280;71243;51.848;5.768;2023-09-18T11:56:54;100512.44;;;22.80;65.55
81812;BME280;71243;51.848;5.768;2023-09-18T11:59:33;100503.06;;;22.82;65.72
81812;BME280;71243;51.848;5.768;2023-09-18T12:01:58;100503.13;;;23.11;64.64
81812;BME280;71243;51.848;5.768;2023-09-18T12:04:27;100497.38;;;23.30;64.14
81812;BME280;71243;51.848;5.768;2023-09-18T12:06:53;100501.44;;;23.33;63.95
81812;BME280;71243;51.848;5.768;2023-09-18T12:09:18;100502.75;;;23.30;63.68
81812;BME280;71243;51.848;5.768;2023-09-18T12:11:43;100502.28;;;23.22;63.23
81812;BME280;71243;51.848;5.768;2023-09-18T12:14:09;100497.97;;;23.09;63.10
81812;BME280;71243;51.848;5.768;2023-09-18T12:16:38;100509.69;;;23.15;63.61
81812;BME280;71243;51.848;5.768;2023-09-18T12:19:03;100500.53;;;23.16;63.16
81812;BME280;71243;51.848;5.768;2023-09-18T12:21:28;100491.78;;;22.97;63.46
81812;BME280;71243;51.848;5.768;2023-09-18T12:23:53;100490.53;;;22.76;64.08
81812;BME280;71243;51.848;5.768;2023-09-18T12:26:19;100502.84;;;22.61;64.12
81812;BME280;71243;51.848;5.768;2023-09-18T12:28:45;100493.34;;;22.70;64.50
81812;BME280;71243;51.848;5.768;2023-09-18T12:31:11;100489.47;;;22.89;63.11
81812;BME280;71243;51.848;5.768;2023-09-18T12:33:38;100485.06;;;23.11;63.77
81812;BME280;71243;51.848;5.768;2023-09-18T12:36:04;100485.19;;;23.16;63.21
81812;BME280;71243;51.848;5.768;2023-09-18T12:38:30;100486.34;;;23.32;63.49
81812;BME280;71243;51.848;5.768;2023-09-18T12:40:55;100489.63;;;23.34;62.50
81812;BME280;71243;51.848;5.768;2023-09-18T12:43:22;100473.13;;;23.47;61.72
81812;BME280;71243;51.848;5.768;2023-09-18T12:45:48;100476.06;;;23.45;60.99
81812;BME280;71243;51.848;5.768;2023-09-18T12:48:13;100464.34;;;23.51;61.35
81812;BME280;71243;51.848;5.768;2023-09-18T12:50:39;100469.72;;;23.51;60.48
81812;BME280;71243;51.848;5.768;2023-09-18T12:53:12;100464.84;;;23.65;58.73
81812;BME280;71243;51.848;5.768;2023-09-18T12:55:38;100467.75;;;23.91;58.29
81812;BME280;71243;51.848;5.768;2023-09-18T12:58:04;100463.75;;;24.11;57.18